Time;durP1;ratioP1;P1;durP2;ratioP2;P2;SDS_P1;SDS_P2;PMS_P1;PMS_P2;Temp;Humidity;BMP_temperature;BMP_pressure;BME280_temperature;BME280_humidity;BME280_pressure;Samples;Min_cycle;Max_cycle;Signal;HPM_P1;HPM_P2
2022/07/08 00:02:24;;;;;;;4.30;3.90;;;;;;;;;;4973713;28;20210;-88
2022/07/08 00:05:28;;;;;;;5.20;4.20;;;;;;;;;;4974105;28;20206;-88
2022/07/08 00:08:33;;;;;;;7.90;4.40;;;;;;;;;;4963170;28;20221;-88
2022/07/08 00:11:37;;;;;;;4.77;4.23;;;;;;;;;;4973822;28;20186;-88
2022/07/08 00:14:41;;;;;;;7.27;4.67;;;;;;;;;;4962946;28;20178;-88
2022/07/08 00:17:45;;;;;;;5.03;4.63;;;;;;;;;;4973767;28;20635;-88
2022/07/08 00:20:50;;;;;;;5.83;4.50;;;;;;;;;;4962517;28;20205;-88
2022/07/08 00:23:54;;;;;;;6.77;4.87;;;;;;;;;;4962684;28;20234;-88
2022/07/08 00:26:58;;;;;;;5.90;4.77;;;;;;;;;;4973582;28;20190;-88
2022/07/08 00:30:03;;;;;;;5.60;5.10;;;;;;;;;;4973821;28;20526;-88
2022/07/08 00:33:06;;;;;;;6.10;4.70;;;;;;;;;;4973580;28;20182;-88
2022/07/08 00:36:11;;;;;;;5.43;4.93;;;;;;;;;;4973714;28;20190;-86
2022/07/08 00:39:15;;;;;;;7.60;4.90;;;;;;;;;;4973131;28;20222;-88
2022/07/08 00:42:19;;;;;;;5.50;4.60;;;;;;;;;;4973029;28;20182;-88
2022/07/08 00:45:23;;;;;;;5.90;4.43;;;;;;;;;;4962019;28;20182;-88
2022/07/08 00:48:27;;;;;;;5.50;4.27;;;;;;;;;;4996056;23;20234;-82
2022/07/08 00:51:33;;;;;;;6.30;3.50;;;;;;;;;;4988621;28;20194;-86
2022/07/08 00:54:37;;;;;;;3.33;3.00;;;;;;;;;;4965586;28;20518;-85
2022/07/08 00:57:42;;;;;;;3.57;2.40;;;;;;;;;;4975519;28;20636;-83
2022/07/08 01:00:47;;;;;;;4.70;2.13;;;;;;;;;;4968399;28;20187;-82
2022/07/08 01:03:51;;;;;;;4.00;1.93;;;;;;;;;;4966230;28;20215;-85
2022/07/08 01:06:55;;;;;;;4.60;1.93;;;;;;;;;;4966092;28;20535;-82
2022/07/08 01:09:59;;;;;;;5.70;2.00;;;;;;;;;;4943702;28;20226;-82
2022/07/08 01:13:04;;;;;;;9.60;1.93;;;;;;;;;;4954773;28;20179;-83
2022/07/08 01:16:08;;;;;;;4.20;1.80;;;;;;;;;;4955185;28;20190;-85
2022/07/08 01:19:12;;;;;;;6.47;1.70;;;;;;;;;;4944095;28;20218;-86
2022/07/08 01:22:17;;;;;;;6.43;1.80;;;;;;;;;;4944680;28;20187;-82
2022/07/08 01:25:21;;;;;;;3.77;1.40;;;;;;;;;;4965935;28;20191;-82
2022/07/08 01:28:26;;;;;;;11.57;1.83;;;;;;;;;;4943781;28;20219;-84
2022/07/08 01:31:30;;;;;;;7.57;1.77;;;;;;;;;;4966833;28;20198;-85
2022/07/08 01:34:34;;;;;;;5.40;1.60;;;;;;;;;;4956589;28;20638;-83
2022/07/08 01:37:38;;;;;;;4.80;1.80;;;;;;;;;;4968086;28;20183;-85
2022/07/08 01:40:42;;;;;;;7.53;1.70;;;;;;;;;;4954585;28;20212;-85
2022/07/08 01:43:46;;;;;;;5.33;1.90;;;;;;;;;;4955342;28;20219;-83
2022/07/08 01:46:50;;;;;;;5.90;1.57;;;;;;;;;;4944397;28;20535;-82
2022/07/08 01:49:54;;;;;;;6.83;1.70;;;;;;;;;;4954247;28;20574;-82
2022/07/08 01:52:59;;;;;;;7.53;1.80;;;;;;;;;;4956628;28;20625;-85
2022/07/08 01:56:03;;;;;;;6.77;1.50;;;;;;;;;;4955746;28;20535;-85
2022/07/08 01:59:09;;;;;;;5.43;1.80;;;;;;;;;;4966042;28;20226;-85
2022/07/08 02:02:15;;;;;;;6.03;1.77;;;;;;;;;;4956883;28;20531;-85
2022/07/08 02:05:19;;;;;;;7.33;1.80;;;;;;;;;;4966369;28;20195;-85
2022/07/08 02:08:23;;;;;;;6.80;1.90;;;;;;;;;;4957587;28;20222;-85
2022/07/08 02:14:53;;;;;;;5.07;1.80;;;;;;;;;;4967209;28;20187;-85
2022/07/08 02:17:57;;;;;;;5.87;1.67;;;;;;;;;;4945444;28;20669;-85
2022/07/08 02:21:01;;;;;;;5.73;1.73;;;;;;;;;;4956223;28;20638;-85
2022/07/08 02:24:06;;;;;;;5.60;1.73;;;;;;;;;;4944919;28;20230;-85
2022/07/08 02:27:10;;;;;;;8.60;1.90;;;;;;;;;;4944897;28;20191;-85
2022/07/08 02:30:14;;;;;;;8.13;2.13;;;;;;;;;;4966966;28;20223;-85
2022/07/08 02:33:18;;;;;;;8.80;1.93;;;;;;;;;;4944848;28;20202;-84
2022/07/08 02:36:23;;;;;;;6.17;1.60;;;;;;;;;;4966169;28;20186;-85
2022/07/08 02:39:27;;;;;;;9.17;1.97;;;;;;;;;;4944425;28;20218;-85
2022/07/08 02:42:31;;;;;;;7.67;1.47;;;;;;;;;;4946209;28;20199;-84
2022/07/08 02:45:37;;;;;;;7.03;1.43;;;;;;;;;;4957879;28;20198;-84
2022/07/08 02:48:41;;;;;;;4.60;1.63;;;;;;;;;;4945221;28;20234;-83
2022/07/08 02:51:45;;;;;;;3.20;1.33;;;;;;;;;;4957160;28;20206;-85
2022/07/08 02:54:49;;;;;;;8.97;2.53;;;;;;;;;;4955525;28;20225;-85
2022/07/08 02:57:53;;;;;;;5.43;1.77;;;;;;;;;;4955441;28;20182;-85
2022/07/08 03:00:57;;;;;;;11.03;2.20;;;;;;;;;;4944969;28;20190;-85
2022/07/08 03:04:01;;;;;;;4.50;1.63;;;;;;;;;;4980486;28;20234;-82
2022/07/08 03:07:07;;;;;;;4.57;1.20;;;;;;;;;;4976077;28;20629;-82
2022/07/08 03:10:11;;;;;;;5.53;1.90;;;;;;;;;;4943800;28;20218;-83
2022/07/08 03:13:16;;;;;;;6.23;1.47;;;;;;;;;;4957337;28;20523;-83
2022/07/08 03:16:20;;;;;;;7.50;1.50;;;;;;;;;;4956981;28;20203;-82
2022/07/08 03:19:24;;;;;;;5.13;1.30;;;;;;;;;;4945865;28;20570;-83
2022/07/08 03:22:28;;;;;;;7.60;1.40;;;;;;;;;;4946179;28;20669;-82
2022/07/08 03:25:33;;;;;;;8.93;1.80;;;;;;;;;;4945512;28;20226;-83
2022/07/08 03:28:37;;;;;;;4.80;1.40;;;;;;;;;;4968039;28;20566;-82
2022/07/08 03:31:41;;;;;;;5.07;1.60;;;;;;;;;;4956779;28;20206;-83
2022/07/08 03:34:45;;;;;;;4.63;1.43;;;;;;;;;;4956391;28;20199;-82
2022/07/08 03:37:50;;;;;;;5.03;1.70;;;;;;;;;;4957144;28;20194;-83
2022/07/08 03:44:16;;;;;;;7.17;1.60;;;;;;;;;;4967700;28;20670;-82
2022/07/08 03:47:20;;;;;;;6.67;1.90;;;;;;;;;;4967688;28;20199;-84
2022/07/08 03:50:25;;;;;;;9.10;1.50;;;;;;;;;;4955980;28;20211;-82
2022/07/08 03:53:29;;;;;;;5.23;2.00;;;;;;;;;;4967947;28;20202;-82
2022/07/08 03:56:33;;;;;;;5.77;1.63;;;;;;;;;;4956725;28;20187;-82
2022/07/08 03:59:37;;;;;;;8.23;2.33;;;;;;;;;;4945766;28;20226;-84
2022/07/08 04:02:41;;;;;;;5.27;1.80;;;;;;;;;;4956704;28;20179;-82
2022/07/08 04:05:46;;;;;;;4.00;1.67;;;;;;;;;;4956870;28;20215;-86
2022/07/08 04:08:50;;;;;;;4.17;1.53;;;;;;;;;;4947932;28;20218;-85
2022/07/08 04:11:54;;;;;;;4.80;1.60;;;;;;;;;;4968821;28;20186;-85
2022/07/08 04:14:58;;;;;;;9.93;1.73;;;;;;;;;;4958663;28;20183;-85
2022/07/08 04:18:03;;;;;;;4.50;1.30;;;;;;;;;;4948135;28;20195;-85
2022/07/08 04:21:08;;;;;;;4.40;1.37;;;;;;;;;;4959207;28;20187;-85
2022/07/08 04:24:12;;;;;;;9.40;1.73;;;;;;;;;;4948217;28;20222;-82
2022/07/08 04:27:15;;;;;;;4.47;1.50;;;;;;;;;;4946485;28;20179;-85
2022/07/08 04:30:20;;;;;;;2.40;1.40;;;;;;;;;;4967981;28;20218;-84
2022/07/08 04:33:24;;;;;;;6.87;1.50;;;;;;;;;;4946487;28;20202;-85
2022/07/08 04:36:28;;;;;;;5.20;1.57;;;;;;;;;;4956638;28;20515;-82
2022/07/08 04:39:32;;;;;;;5.90;1.80;;;;;;;;;;4959776;28;20223;-85
2022/07/08 04:42:36;;;;;;;5.60;1.73;;;;;;;;;;4957971;28;20183;-86
2022/07/08 04:45:41;;;;;;;6.13;1.50;;;;;;;;;;4957531;28;20543;-85
2022/07/08 04:48:45;;;;;;;7.20;1.73;;;;;;;;;;4967109;28;20570;-82
2022/07/08 04:51:49;;;;;;;6.73;1.70;;;;;;;;;;4944399;28;20662;-82
2022/07/08 04:54:53;;;;;;;8.47;1.90;;;;;;;;;;4956437;28;20203;-85
2022/07/08 04:57:59;;;;;;;6.60;1.80;;;;;;;;;;4958305;28;20210;-84
2022/07/08 05:01:03;;;;;;;4.67;1.63;;;;;;;;;;4958972;28;20195;-86
2022/07/08 05:04:07;;;;;;;6.57;1.63;;;;;;;;;;4959408;28;20218;-85
2022/07/08 05:07:11;;;;;;;4.63;1.57;;;;;;;;;;4959753;28;20183;-85
2022/07/08 05:10:16;;;;;;;10.33;1.90;;;;;;;;;;4948023;28;20218;-84
2022/07/08 05:13:20;;;;;;;12.83;2.07;;;;;;;;;;4948026;28;20207;-85
2022/07/08 05:16:25;;;;;;;5.73;1.70;;;;;;;;;;4959472;28;20180;-85
2022/07/08 05:19:29;;;;;;;6.33;1.67;;;;;;;;;;4959192;28;20226;-86
2022/07/08 05:22:34;;;;;;;5.33;1.40;;;;;;;;;;4959367;28;20179;-85
2022/07/08 05:25:38;;;;;;;5.80;1.43;;;;;;;;;;4959491;28;20214;-85
2022/07/08 05:28:42;;;;;;;9.20;1.87;;;;;;;;;;4970009;28;20215;-86
2022/07/08 05:31:46;;;;;;;3.57;1.50;;;;;;;;;;4969036;28;20183;-84
2022/07/08 05:34:50;;;;;;;5.57;1.43;;;;;;;;;;4957739;28;20654;-83
2022/07/08 05:37:55;;;;;;;6.90;1.53;;;;;;;;;;4946830;28;20183;-84
2022/07/08 05:40:59;;;;;;;7.40;1.60;;;;;;;;;;4959861;28;20187;-85
2022/07/08 05:44:03;;;;;;;5.70;2.00;;;;;;;;;;4947153;28;20202;-85
2022/07/08 05:47:07;;;;;;;6.20;1.63;;;;;;;;;;4957570;28;20183;-85
2022/07/08 05:50:11;;;;;;;5.97;1.67;;;;;;;;;;4967840;28;20219;-85
2022/07/08 05:53:16;;;;;;;8.17;2.00;;;;;;;;;;4946792;28;20207;-85
2022/07/08 05:56:21;;;;;;;10.57;3.13;;;;;;;;;;4957773;28;20203;-85
2022/07/08 05:59:27;;;;;;;8.23;1.73;;;;;;;;;;4946690;28;20606;-85
2022/07/08 06:02:31;;;;;;;6.37;1.83;;;;;;;;;;4955306;28;20191;-85
2022/07/08 06:05:35;;;;;;;7.63;2.10;;;;;;;;;;4967566;28;20543;-85
2022/07/08 06:08:40;;;;;;;5.90;1.90;;;;;;;;;;4956964;28;20218;-85
2022/07/08 06:11:44;;;;;;;7.37;2.00;;;;;;;;;;4956327;28;20190;-85
2022/07/08 06:14:48;;;;;;;9.07;1.87;;;;;;;;;;4945836;28;20183;-85
2022/07/08 06:17:52;;;;;;;6.13;1.43;;;;;;;;;;4967695;28;20187;-84
2022/07/08 06:20:56;;;;;;;8.23;2.00;;;;;;;;;;4945601;28;20179;-86
2022/07/08 06:24:01;;;;;;;5.60;1.80;;;;;;;;;;4945738;28;20190;-86
2022/07/08 06:27:05;;;;;;;4.80;1.53;;;;;;;;;;4946122;28;20646;-85
2022/07/08 06:30:09;;;;;;;5.93;1.73;;;;;;;;;;4945663;28;20218;-85
2022/07/08 06:33:13;;;;;;;6.80;1.50;;;;;;;;;;4967919;28;20179;-85
2022/07/08 06:36:18;;;;;;;4.17;1.40;;;;;;;;;;4945460;28;20187;-85
2022/07/08 06:39:22;;;;;;;7.70;1.63;;;;;;;;;;4955830;28;20226;-86
2022/07/08 06:42:26;;;;;;;6.60;1.40;;;;;;;;;;4945165;28;20190;-85
2022/07/08 06:45:33;;;;;;;3.87;1.43;;;;;;;;;;4955795;28;20218;-85
2022/07/08 06:48:37;;;;;;;6.27;1.20;;;;;;;;;;4984132;23;20202;-83
2022/07/08 06:51:41;;;;;;;6.47;1.63;;;;;;;;;;4972262;28;20190;-83
2022/07/08 06:54:47;;;;;;;4.20;1.30;;;;;;;;;;4984365;28;20182;-82
2022/07/08 06:57:51;;;;;;;4.77;1.50;;;;;;;;;;4962168;28;20190;-83
2022/07/08 07:00:55;;;;;;;3.97;1.50;;;;;;;;;;4973667;28;20186;-82
2022/07/08 07:03:59;;;;;;;6.83;1.63;;;;;;;;;;4960791;28;20178;-84
2022/07/08 07:07:03;;;;;;;5.33;1.50;;;;;;;;;;4983644;28;20182;-82
2022/07/08 07:10:08;;;;;;;6.73;1.40;;;;;;;;;;4972067;28;20226;-83
2022/07/08 07:13:13;;;;;;;5.40;1.50;;;;;;;;;;4960612;28;20657;-82
2022/07/08 07:16:17;;;;;;;7.43;1.43;;;;;;;;;;4961456;28;20198;-83
2022/07/08 07:19:21;;;;;;;6.73;1.50;;;;;;;;;;4960815;28;20225;-83
2022/07/08 07:22:25;;;;;;;4.07;1.50;;;;;;;;;;4971691;28;20190;-83
2022/07/08 07:25:29;;;;;;;5.20;1.33;;;;;;;;;;4972305;28;20213;-83
2022/07/08 07:28:34;;;;;;;5.27;1.20;;;;;;;;;;4971550;28;20182;-83
2022/07/08 07:31:38;;;;;;;5.53;1.60;;;;;;;;;;4995394;28;20206;-83
2022/07/08 07:34:42;;;;;;;4.40;1.30;;;;;;;;;;4971805;28;20244;-83
2022/07/08 07:37:46;;;;;;;3.67;1.23;;;;;;;;;;4983253;28;20190;-83
2022/07/08 07:40:51;;;;;;;4.83;1.23;;;;;;;;;;4971818;28;20653;-83
2022/07/08 07:43:55;;;;;;;5.80;1.60;;;;;;;;;;4961276;28;20194;-83
2022/07/08 07:46:59;;;;;;;5.77;1.57;;;;;;;;;;4982866;28;20202;-83
2022/07/08 07:50:03;;;;;;;7.03;1.30;;;;;;;;;;4971176;28;20234;-84
2022/07/08 07:53:07;;;;;;;3.63;0.93;;;;;;;;;;4982972;28;20187;-82
2022/07/08 07:56:11;;;;;;;3.60;1.10;;;;;;;;;;4984230;28;20187;-82
2022/07/08 07:59:15;;;;;;;5.03;1.50;;;;;;;;;;4963805;28;20217;-83
2022/07/08 08:02:19;;;;;;;4.80;1.20;;;;;;;;;;4964250;28;20182;-83
2022/07/08 08:05:23;;;;;;;5.23;1.20;;;;;;;;;;4974642;28;20214;-83
2022/07/08 08:08:31;;;;;;;3.63;1.10;;;;;;;;;;4975189;28;20186;-83
2022/07/08 08:11:35;;;;;;;3.70;1.30;;;;;;;;;;4985999;28;20644;-82
2022/07/08 08:14:39;;;;;;;3.13;1.03;;;;;;;;;;4975297;28;20182;-82
2022/07/08 08:17:44;;;;;;;6.53;1.13;;;;;;;;;;4975298;28;20186;-82
2022/07/08 08:20:48;;;;;;;5.13;1.50;;;;;;;;;;4974371;28;20542;-83
2022/07/08 08:23:52;;;;;;;4.27;1.40;;;;;;;;;;4974532;28;20530;-83
2022/07/08 08:26:56;;;;;;;5.77;1.33;;;;;;;;;;4985240;28;20218;-82
2022/07/08 08:30:00;;;;;;;5.70;1.10;;;;;;;;;;4974636;28;20217;-82
2022/07/08 08:33:04;;;;;;;3.03;1.03;;;;;;;;;;4974208;28;20186;-83
2022/07/08 08:36:08;;;;;;;3.20;1.17;;;;;;;;;;4974079;28;20183;-82
2022/07/08 08:39:13;;;;;;;3.57;0.90;;;;;;;;;;4974125;28;20222;-84
2022/07/08 08:42:19;;;;;;;4.30;1.00;;;;;;;;;;4974046;28;20648;-82
2022/07/08 08:45:23;;;;;;;7.07;1.30;;;;;;;;;;4973420;28;20700;-82
2022/07/08 08:48:36;;;;;;;5.30;1.20;;;;;;;;;;4985189;28;20194;-82
2022/07/08 08:51:43;;;;;;;4.63;1.20;;;;;;;;;;4973889;28;20202;-83
2022/07/08 08:54:49;;;;;;;5.13;1.23;;;;;;;;;;4985171;28;20178;-83
2022/07/08 08:58:02;;;;;;;4.63;1.20;;;;;;;;;;4984861;28;20186;-83
2022/07/08 09:01:07;;;;;;;4.40;0.90;;;;;;;;;;4985146;28;20183;-83
2022/07/08 09:04:12;;;;;;;3.00;0.93;;;;;;;;;;4973715;28;20202;-83
2022/07/08 09:07:17;;;;;;;5.37;1.30;;;;;;;;;;4984094;28;20553;-83
2022/07/08 09:10:22;;;;;;;4.40;1.60;;;;;;;;;;4962935;28;20226;-83
2022/07/08 09:13:27;;;;;;;5.20;1.20;;;;;;;;;;4973790;28;20197;-83
2022/07/08 09:16:31;;;;;;;2.90;1.03;;;;;;;;;;4973544;28;20202;-83
2022/07/08 09:19:40;;;;;;;4.73;1.10;;;;;;;;;;4962513;28;20229;-83
2022/07/08 09:22:44;;;;;;;3.83;1.27;;;;;;;;;;4997153;28;20194;-83
2022/07/08 09:25:51;;;;;;;5.63;1.23;;;;;;;;;;4984492;28;20225;-83
2022/07/08 09:28:56;;;;;;;4.13;0.97;;;;;;;;;;4973462;28;20221;-83
2022/07/08 09:32:11;;;;;;;2.63;1.13;;;;;;;;;;4962273;28;20641;-83
2022/07/08 09:35:15;;;;;;;3.63;1.10;;;;;;;;;;4996011;28;20637;-82
2022/07/08 09:38:20;;;;;;;3.43;1.00;;;;;;;;;;4962260;28;20186;-83
2022/07/08 09:41:24;;;;;;;3.37;1.20;;;;;;;;;;4984294;28;20522;-82
2022/07/08 09:44:29;;;;;;;2.83;0.83;;;;;;;;;;4973162;28;20523;-83
2022/07/08 09:47:33;;;;;;;4.77;0.90;;;;;;;;;;4984508;28;20210;-83
2022/07/08 09:50:43;;;;;;;4.13;1.00;;;;;;;;;;4961746;28;20230;-83
2022/07/08 09:53:47;;;;;;;3.37;1.20;;;;;;;;;;4962392;28;20186;-83
2022/07/08 09:56:59;;;;;;;3.87;1.10;;;;;;;;;;4996239;28;20187;-83
2022/07/08 10:00:03;;;;;;;4.90;0.90;;;;;;;;;;4983947;28;20222;-82
2022/07/08 10:03:18;;;;;;;3.13;1.10;;;;;;;;;;4974336;28;20186;-83
2022/07/08 10:06:22;;;;;;;3.10;0.93;;;;;;;;;;4972430;28;20669;-83
2022/07/08 10:09:27;;;;;;;3.90;1.20;;;;;;;;;;4995704;28;20217;-83
2022/07/08 10:12:32;;;;;;;4.90;1.10;;;;;;;;;;4995379;28;20194;-83
2022/07/08 10:15:38;;;;;;;4.97;1.20;;;;;;;;;;4972685;28;20186;-83
2022/07/08 10:18:46;;;;;;;4.23;1.20;;;;;;;;;;4983124;28;20225;-83
2022/07/08 10:21:53;;;;;;;5.90;1.60;;;;;;;;;;4972805;28;20178;-83
2022/07/08 10:24:59;;;;;;;5.97;1.20;;;;;;;;;;4972528;28;20642;-82
2022/07/08 10:28:08;;;;;;;6.77;1.10;;;;;;;;;;4983171;28;20531;-82
2022/07/08 10:31:23;;;;;;;6.60;1.47;;;;;;;;;;4972296;28;20182;-83
2022/07/08 10:34:34;;;;;;;2.33;0.77;;;;;;;;;;4982788;28;20191;-83
2022/07/08 10:37:49;;;;;;;2.87;1.10;;;;;;;;;;4982798;28;20182;-83
2022/07/08 10:40:53;;;;;;;5.07;1.47;;;;;;;;;;4982829;28;20190;-83
2022/07/08 10:44:00;;;;;;;5.17;1.00;;;;;;;;;;4960664;28;20194;-83
2022/07/08 10:47:24;;;;;;;3.33;0.93;;;;;;;;;;4971487;28;20217;-82
2022/07/08 10:50:35;;;;;;;3.13;1.10;;;;;;;;;;4982330;28;20234;-83
2022/07/08 10:54:05;;;;;;;4.27;1.03;;;;;;;;;;4971841;28;20182;-83
2022/07/08 10:57:17;;;;;;;2.63;0.90;;;;;;;;;;4971355;28;20180;-83
2022/07/08 11:00:22;;;;;;;3.47;1.40;;;;;;;;;;4982569;28;20569;-83
2022/07/08 11:03:42;;;;;;;3.93;1.30;;;;;;;;;;4971296;28;20187;-83
2022/07/08 11:06:46;;;;;;;6.47;1.33;;;;;;;;;;4983006;28;20215;-83
2022/07/08 11:09:57;;;;;;;4.53;0.93;;;;;;;;;;4972285;28;20223;-83
2022/07/08 11:13:01;;;;;;;4.47;1.00;;;;;;;;;;4961228;28;20626;-83
2022/07/08 11:16:05;;;;;;;1.93;1.07;;;;;;;;;;4972033;28;20183;-84
2022/07/08 11:19:09;;;;;;;3.83;1.20;;;;;;;;;;4982547;28;20701;-83
2022/07/08 11:22:14;;;;;;;4.50;1.30;;;;;;;;;;4972145;28;20182;-83
2022/07/08 11:25:18;;;;;;;3.17;1.00;;;;;;;;;;4971390;28;20197;-84
2022/07/08 11:28:24;;;;;;;5.50;1.17;;;;;;;;;;4982702;28;20183;-83
2022/07/08 11:31:28;;;;;;;5.43;0.93;;;;;;;;;;4985964;28;20655;-83
2022/07/08 11:34:32;;;;;;;5.03;1.10;;;;;;;;;;4964703;28;20191;-83
2022/07/08 11:37:41;;;;;;;6.27;1.30;;;;;;;;;;4975824;28;20178;-83
2022/07/08 11:40:47;;;;;;;3.10;1.00;;;;;;;;;;4964371;28;20539;-83
2022/07/08 11:43:52;;;;;;;4.77;1.00;;;;;;;;;;4975217;28;20198;-83
2022/07/08 11:46:57;;;;;;;1.97;0.80;;;;;;;;;;4974766;28;20230;-83
2022/07/08 11:50:02;;;;;;;3.73;1.20;;;;;;;;;;4963651;28;20230;-83
2022/07/08 11:53:20;;;;;;;4.57;0.97;;;;;;;;;;4963754;28;20179;-83
2022/07/08 11:56:24;;;;;;;4.10;1.40;;;;;;;;;;4974386;28;20188;-83
2022/07/08 11:59:30;;;;;;;2.63;1.03;;;;;;;;;;4998468;28;20695;-83
2022/07/08 12:02:36;;;;;;;2.87;0.90;;;;;;;;;;4963728;28;20664;-83
2022/07/08 12:05:41;;;;;;;3.87;1.10;;;;;;;;;;4963847;28;20199;-83
2022/07/08 12:08:45;;;;;;;1.93;0.77;;;;;;;;;;4973989;28;20224;-83
2022/07/08 12:11:52;;;;;;;2.77;1.03;;;;;;;;;;4974536;28;20649;-83
2022/07/08 12:14:56;;;;;;;6.63;1.00;;;;;;;;;;4963646;28;20539;-83
2022/07/08 12:18:01;;;;;;;4.32;1.02;;;;;;;;;;4986894;28;20177;-84
2022/07/08 12:21:19;;;;;;;4.27;1.00;;;;;;;;;;4963941;28;20189;-84
2022/07/08 12:24:26;;;;;;;3.17;0.88;;;;;;;;;;4985134;28;20195;-84
2022/07/08 12:27:30;;;;;;;3.27;0.87;;;;;;;;;;4973947;28;20217;-83
2022/07/08 12:30:34;;;;;;;3.73;1.10;;;;;;;;;;4974381;28;20288;-83
2022/07/08 12:33:39;;;;;;;5.27;1.10;;;;;;;;;;4974828;28;20188;-83
2022/07/08 12:36:43;;;;;;;4.00;1.10;;;;;;;;;;4962534;28;20194;-83
2022/07/08 12:39:47;;;;;;;3.70;1.10;;;;;;;;;;4973881;28;20221;-83
2022/07/08 12:43:02;;;;;;;2.33;1.10;;;;;;;;;;4974328;28;20525;-83
2022/07/08 12:46:07;;;;;;;3.00;1.30;;;;;;;;;;4962668;28;20182;-82
2022/07/08 12:49:21;;;;;;;4.67;1.10;;;;;;;;;;4963383;28;20235;-85
2022/07/08 12:52:25;;;;;;;3.33;1.20;;;;;;;;;;4986210;28;20196;-85
2022/07/08 12:55:29;;;;;;;4.07;1.13;;;;;;;;;;4974267;28;20189;-85
2022/07/08 12:58:34;;;;;;;3.27;1.17;;;;;;;;;;4974052;28;20178;-85
2022/07/08 13:01:38;;;;;;;3.80;1.07;;;;;;;;;;4974126;28;20178;-85
2022/07/08 13:04:42;;;;;;;2.67;1.07;;;;;;;;;;4973919;28;20187;-85
2022/07/08 13:07:46;;;;;;;2.07;0.90;;;;;;;;;;4997037;28;20229;-85
2022/07/08 13:10:50;;;;;;;4.70;1.07;;;;;;;;;;4963522;28;20211;-85
2022/07/08 13:13:54;;;;;;;3.10;0.80;;;;;;;;;;4997852;28;20192;-85
2022/07/08 13:16:58;;;;;;;2.23;0.90;;;;;;;;;;4975061;28;20188;-85
2022/07/08 13:20:03;;;;;;;3.43;1.30;;;;;;;;;;4998269;28;20225;-86
2022/07/08 13:23:07;;;;;;;4.97;1.00;;;;;;;;;;4985372;28;20187;-85
2022/07/08 13:26:11;;;;;;;3.20;0.90;;;;;;;;;;4997042;28;20182;-85
2022/07/08 13:29:15;;;;;;;3.37;1.10;;;;;;;;;;4962492;28;20557;-85
2022/07/08 13:32:19;;;;;;;2.23;1.20;;;;;;;;;;4973959;28;20638;-85
2022/07/08 13:35:23;;;;;;;2.60;1.00;;;;;;;;;;4973390;28;20183;-85
2022/07/08 13:38:27;;;;;;;3.87;1.27;;;;;;;;;;4973868;28;20602;-85
2022/07/08 13:41:32;;;;;;;2.73;0.90;;;;;;;;;;4973144;28;20189;-85
2022/07/08 13:44:36;;;;;;;4.10;1.00;;;;;;;;;;4962330;28;20543;-85
2022/07/08 13:47:40;;;;;;;2.67;1.10;;;;;;;;;;4976159;28;20550;-85
2022/07/08 13:50:46;;;;;;;4.77;1.30;;;;;;;;;;4975180;28;20681;-85
2022/07/08 13:53:50;;;;;;;2.40;0.90;;;;;;;;;;4964229;28;20199;-86
2022/07/08 13:56:54;;;;;;;3.67;1.23;;;;;;;;;;4963141;28;20543;-85
2022/07/08 13:59:58;;;;;;;3.60;1.03;;;;;;;;;;4974582;28;20226;-85
2022/07/08 14:03:02;;;;;;;2.67;1.00;;;;;;;;;;4985973;28;20189;-85
2022/07/08 14:06:06;;;;;;;3.03;0.90;;;;;;;;;;4984837;28;20189;-86
2022/07/08 14:09:10;;;;;;;3.10;1.00;;;;;;;;;;4973869;28;20217;-85
2022/07/08 14:12:18;;;;;;;2.77;0.97;;;;;;;;;;4962657;28;20190;-86
2022/07/08 14:15:21;;;;;;;2.17;1.00;;;;;;;;;;4985575;28;20183;-85
2022/07/08 14:18:26;;;;;;;3.60;1.03;;;;;;;;;;4963073;28;20183;-84
2022/07/08 14:21:30;;;;;;;4.77;1.37;;;;;;;;;;4973344;28;20183;-84
2022/07/08 14:24:35;;;;;;;3.37;1.20;;;;;;;;;;4973767;28;20550;-85
2022/07/08 14:27:38;;;;;;;3.87;1.20;;;;;;;;;;4973723;28;20539;-85
2022/07/08 14:30:43;;;;;;;3.53;0.97;;;;;;;;;;4962204;28;20218;-85
2022/07/08 14:33:48;;;;;;;2.47;0.87;;;;;;;;;;4972777;28;20183;-85
2022/07/08 14:36:52;;;;;;;5.77;1.17;;;;;;;;;;4973995;28;20186;-85
2022/07/08 14:39:55;;;;;;;2.27;1.03;;;;;;;;;;4972895;28;20548;-86
2022/07/08 14:43:00;;;;;;;3.10;0.87;;;;;;;;;;4973177;28;20179;-85
2022/07/08 14:46:04;;;;;;;4.17;0.93;;;;;;;;;;4974215;28;20192;-85
2022/07/08 14:49:08;;;;;;;2.73;0.90;;;;;;;;;;4973140;28;20721;-86
2022/07/08 14:52:12;;;;;;;3.47;1.07;;;;;;;;;;4963029;28;20188;-85
2022/07/08 14:55:16;;;;;;;3.40;0.80;;;;;;;;;;4974167;28;20193;-86
2022/07/08 14:58:21;;;;;;;4.40;1.05;;;;;;;;;;4973667;28;20203;-86
2022/07/08 15:01:25;;;;;;;2.28;0.85;;;;;;;;;;4976470;28;20524;-86
2022/07/08 15:04:29;;;;;;;2.33;0.93;;;;;;;;;;4977119;28;20642;-87
2022/07/08 15:07:33;;;;;;;2.25;1.00;;;;;;;;;;4981514;28;20216;-86
2022/07/08 15:10:38;;;;;;;2.33;1.00;;;;;;;;;;4979502;28;20219;-86
2022/07/08 15:13:42;;;;;;;3.33;0.85;;;;;;;;;;4971620;28;20654;-87
2022/07/08 15:16:46;;;;;;;3.45;1.10;;;;;;;;;;4980330;28;20183;-86
2022/07/08 15:19:50;;;;;;;1.73;0.88;;;;;;;;;;4968277;28;20224;-86
2022/07/08 15:22:54;;;;;;;3.35;1.00;;;;;;;;;;4988305;28;20185;-86
2022/07/08 15:25:58;;;;;;;3.40;1.20;;;;;;;;;;4966671;28;20181;-86
2022/07/08 15:29:04;;;;;;;1.85;0.70;;;;;;;;;;4966265;28;20228;-85
2022/07/08 15:32:08;;;;;;;2.30;0.77;;;;;;;;;;4990805;28;20188;-86
2022/07/08 15:35:12;;;;;;;1.52;0.90;;;;;;;;;;4978123;28;20185;-85
2022/07/08 15:38:16;;;;;;;2.67;0.95;;;;;;;;;;4978102;28;20195;-86
2022/07/08 15:41:20;;;;;;;2.88;1.00;;;;;;;;;;4967030;28;20207;-86
2022/07/08 15:44:24;;;;;;;2.65;0.82;;;;;;;;;;4989060;28;20189;-86
2022/07/08 15:47:31;;;;;;;1.75;0.80;;;;;;;;;;4980005;28;20676;-86
2022/07/08 15:50:35;;;;;;;3.35;0.80;;;;;;;;;;4979439;28;20234;-86
2022/07/08 15:53:39;;;;;;;1.98;0.82;;;;;;;;;;4978632;28;20187;-85
2022/07/08 15:56:46;;;;;;;2.20;1.00;;;;;;;;;;4965872;28;20646;-85
2022/07/08 15:59:50;;;;;;;1.65;0.77;;;;;;;;;;4969319;28;20220;-85
2022/07/08 16:02:54;;;;;;;2.17;0.80;;;;;;;;;;4989827;28;20550;-86
2022/07/08 16:05:59;;;;;;;3.37;1.00;;;;;;;;;;4989643;28;20687;-86
2022/07/08 16:09:04;;;;;;;4.23;0.93;;;;;;;;;;4988973;28;20234;-86
2022/07/08 16:12:08;;;;;;;2.67;0.80;;;;;;;;;;4988408;28;20549;-85
2022/07/08 16:15:12;;;;;;;3.47;1.20;;;;;;;;;;4988192;28;20185;-86
2022/07/08 16:18:16;;;;;;;4.33;0.90;;;;;;;;;;4966275;28;20184;-86
2022/07/08 16:21:21;;;;;;;2.17;1.20;;;;;;;;;;4983050;28;20192;-87
2022/07/08 16:24:25;;;;;;;2.20;0.87;;;;;;;;;;4989752;28;20187;-85
2022/07/08 16:27:29;;;;;;;2.57;1.10;;;;;;;;;;4965385;28;20190;-88
2022/07/08 16:30:34;;;;;;;3.23;1.07;;;;;;;;;;4978212;28;20218;-85
2022/07/08 16:33:39;;;;;;;2.73;1.00;;;;;;;;;;4989825;28;20638;-86
2022/07/08 16:36:43;;;;;;;2.30;0.70;;;;;;;;;;4976838;28;20190;-85
2022/07/08 16:39:47;;;;;;;4.50;1.20;;;;;;;;;;4977370;28;20210;-85
2022/07/08 16:42:52;;;;;;;4.50;0.77;;;;;;;;;;4978691;28;20182;-86
2022/07/08 16:45:56;;;;;;;3.10;0.93;;;;;;;;;;4976693;28;20206;-85
2022/07/08 16:49:00;;;;;;;2.93;1.00;;;;;;;;;;4976649;28;20238;-85
2022/07/08 16:52:04;;;;;;;2.03;1.00;;;;;;;;;;4965356;28;20202;-86
2022/07/08 16:55:08;;;;;;;3.80;0.73;;;;;;;;;;4977107;28;20190;-86
2022/07/08 16:58:12;;;;;;;1.73;0.93;;;;;;;;;;4981602;28;20182;-87
2022/07/08 17:01:17;;;;;;;2.30;1.00;;;;;;;;;;4977776;28;20186;-86
2022/07/08 17:04:21;;;;;;;3.20;0.83;;;;;;;;;;4976604;28;20182;-87
2022/07/08 17:07:25;;;;;;;2.20;1.03;;;;;;;;;;4989484;28;20186;-87
2022/07/08 17:10:29;;;;;;;2.53;0.80;;;;;;;;;;4978704;28;20230;-87
2022/07/08 17:13:33;;;;;;;2.07;0.90;;;;;;;;;;4982634;28;20186;-87
2022/07/08 17:16:38;;;;;;;3.33;1.00;;;;;;;;;;4981807;28;20190;-86
2022/07/08 17:19:43;;;;;;;3.57;1.00;;;;;;;;;;4979444;28;20218;-86
2022/07/08 17:22:47;;;;;;;1.50;0.90;;;;;;;;;;4966280;28;20186;-87
2022/07/08 17:25:55;;;;;;;2.67;0.77;;;;;;;;;;4987534;28;20201;-85
2022/07/08 17:32:24;;;;;;;1.90;0.80;;;;;;;;;;4987371;28;20643;-86
2022/07/08 17:35:29;;;;;;;4.70;1.00;;;;;;;;;;4963598;28;20183;-85
2022/07/08 17:38:33;;;;;;;3.23;1.23;;;;;;;;;;4976669;28;20191;-85
2022/07/08 17:41:37;;;;;;;3.50;0.90;;;;;;;;;;4964456;28;20629;-86
2022/07/08 17:44:41;;;;;;;2.93;1.00;;;;;;;;;;4964303;28;20182;-85
2022/07/08 17:47:46;;;;;;;2.47;0.73;;;;;;;;;;4964586;28;20190;-85
2022/07/08 17:50:51;;;;;;;2.60;1.00;;;;;;;;;;4975226;28;20187;-86
2022/07/08 17:53:55;;;;;;;2.23;0.63;;;;;;;;;;4975322;28;20186;-85
2022/07/08 17:57:00;;;;;;;4.23;1.03;;;;;;;;;;4964242;28;20182;-85
2022/07/08 18:00:05;;;;;;;3.97;1.00;;;;;;;;;;4974720;28;20222;-85
2022/07/08 18:03:09;;;;;;;1.97;0.77;;;;;;;;;;4964701;28;20206;-85
2022/07/08 18:06:14;;;;;;;2.57;0.90;;;;;;;;;;4965195;28;20178;-85
2022/07/08 18:09:18;;;;;;;5.87;1.20;;;;;;;;;;4977249;28;20238;-85
2022/07/08 18:12:23;;;;;;;3.43;0.83;;;;;;;;;;4988527;28;20182;-86
2022/07/08 18:15:27;;;;;;;2.67;0.90;;;;;;;;;;4980320;28;20347;-86
2022/07/08 18:18:32;;;;;;;3.33;0.97;;;;;;;;;;4966870;28;20182;-86
2022/07/08 18:21:36;;;;;;;2.87;0.97;;;;;;;;;;4967666;28;20202;-85
2022/07/08 18:24:40;;;;;;;3.23;0.80;;;;;;;;;;4988779;28;20201;-86
2022/07/08 18:27:45;;;;;;;1.67;0.73;;;;;;;;;;4975845;28;20206;-85
2022/07/08 18:30:49;;;;;;;2.70;0.90;;;;;;;;;;4966389;28;20178;-86
2022/07/08 18:33:53;;;;;;;2.43;1.17;;;;;;;;;;4967211;28;20190;-86
2022/07/08 18:36:59;;;;;;;3.20;0.90;;;;;;;;;;4979615;28;20186;-86
2022/07/08 18:40:03;;;;;;;2.47;1.00;;;;;;;;;;4979731;28;20210;-86